Aérodrome :
LOGIN :

S'inscrire | Disclaimer

   EN    FR    IT 

 










Légende :    VFR   VFR Marginal   IFR   IFR Intensif   IFR Très Intensif
Visi : 
Plafond : 
>= 8 km
>= 3000ft
5 à 8 km
1000 à 3000 ft
1500m à 5 km
500 à 1000 ft
800 à 1500m
200 à 500 ft
< 800m
< 200 ft
Symboles :   Orages  Brouillard  Fortes neiges  Fortes précipitations  Vent > 20 kt
SIGMETs :   Divers  Orages  Givrage  Turbulence  Onde Orograph.  Cendres Volcan.







- Altitude de l'aérodrome : 290 ft
- Code IATA : LAI
- Voir les cartes d'approche


LFRO - Lannion

DERNIER METAR :
  • 211130Z AUTO 16009G20KT 130V190 9000 NSC 09/03 Q1008 TEMPO SHRA BKN015TCU

METARs EXPIRÉS :
  • 211100Z AUTO 15010KT CAVOK 07/03 Q1008 TEMPO SHRA BKN015TCU
  • 211030Z AUTO 14007KT CAVOK 07/04 Q1008 TEMPO SHRA BKN015TCU
  • 211000Z AUTO 15006KT 110V180 CAVOK 06/04 Q1008 TEMPO SHRA BKN015TCU
  • 210930Z AUTO 15007KT 9999 NCD 05/03 Q1007 TEMPO SHRA BKN015TCU
  • 210900Z AUTO 16007KT 130V190 9999 NCD 04/03 Q1007 TEMPO SHRA BKN015TCU

TAF TAF LFRO
Valide du 21 à 12h jusqu'au 22 à 12h UTC


211100Z 2112/2212 14007KT 9999 SCT020
TEMPO 2200/2206 4000 MIFG
Pas de NOTAMs connus pour ce terrain.



MET'MAP, la Météo Aéronautique d'un coup d'oeil ! - Copyright ORBIFLY Décembre 2007 - Disclaimer

ORBIFLY MET'MAP TEAM :

Programmation & Développement : Alexandra Zaïnal
Conception & Développement : Baudouin d'Aumeries
Co-Programmation & Développement : Marc-Olivier Méhu
Soutien technique & logistique : Manuel Goepfert

Contact : metmap@orbifly.com




SOURCES & CREDITS :

   NOAA